Time;durP1;ratioP1;P1;durP2;ratioP2;P2;SDS_P1;SDS_P2;PMS_P1;PMS_P2;Temp;Humidity;BMP_temperature;BMP_pressure;BME280_temperature;BME280_humidity;BME280_pressure;Samples;Min_cycle;Max_cycle;Signal;HPM_P1;HPM_P2
2023/02/19 00:00:05;;;;;;;10.27;3.60;;;13.40;55.10;;;;;;7565064;23;20314;-66
2023/02/19 00:03:13;;;;;;;5.75;3.33;;;13.40;55.20;;;;;;7565320;23;20121;-67
2023/02/19 00:06:14;;;;;;;10.15;3.60;;;13.30;55.10;;;;;;7565332;23;20014;-66
2023/02/19 00:09:17;;;;;;;8.05;3.97;;;13.30;55.10;;;;;;7564744;23;20346;-66
2023/02/19 00:12:18;;;;;;;7.70;3.53;;;13.30;55.20;;;;;;7539600;23;20049;-65
2023/02/19 00:15:19;;;;;;;7.80;3.60;;;13.30;55.20;;;;;;7539229;23;20081;-66
2023/02/19 00:18:20;;;;;;;10.27;3.72;;;13.30;55.30;;;;;;7539129;23;20014;-67
2023/02/19 00:21:22;;;;;;;7.05;3.70;;;13.30;55.30;;;;;;7565312;23;20010;-66
2023/02/19 00:24:23;;;;;;;7.47;3.45;;;13.30;55.40;;;;;;7566587;23;20026;-67
2023/02/19 00:27:24;;;;;;;7.82;3.55;;;13.30;55.30;;;;;;7539911;23;20010;-67
2023/02/19 00:30:25;;;;;;;7.60;3.40;;;13.30;55.40;;;;;;7565111;23;20229;-67
2023/02/19 00:33:28;;;;;;;9.93;3.50;;;13.30;55.50;;;;;;7539754;23;20094;-66
2023/02/19 00:36:31;;;;;;;10.20;4.32;;;13.30;55.40;;;;;;7564962;23;20086;-66
2023/02/19 00:39:32;;;;;;;7.40;3.30;;;13.20;55.40;;;;;;7564712;23;20022;-67
2023/02/19 00:42:33;;;;;;;10.88;3.58;;;13.20;55.40;;;;;;7564795;23;20340;-66
2023/02/19 00:45:34;;;;;;;6.60;3.03;;;13.20;55.40;;;;;;7566292;23;20053;-66
2023/02/19 00:48:35;;;;;;;6.57;3.60;;;13.20;55.50;;;;;;7541056;23;20089;-65
2023/02/19 00:51:37;;;;;;;5.45;3.15;;;13.20;55.50;;;;;;7567348;23;20010;-66
2023/02/19 00:54:38;;;;;;;12.18;3.53;;;13.20;55.50;;;;;;7541431;23;20337;-66
2023/02/19 00:57:39;;;;;;;12.27;3.65;;;13.10;55.40;;;;;;7566723;23;20006;-66
2023/02/19 01:00:40;;;;;;;7.55;3.60;;;13.10;55.50;;;;;;7517543;23;20033;-66
2023/02/19 01:03:42;;;;;;;7.40;3.38;;;13.10;55.50;;;;;;7541096;23;20055;-66
2023/02/19 01:06:43;;;;;;;9.15;3.55;;;13.10;55.50;;;;;;7566869;23;20029;-66
2023/02/19 01:09:44;;;;;;;9.35;3.40;;;13.10;55.50;;;;;;7516878;23;20281;-66
2023/02/19 01:12:45;;;;;;;7.30;3.15;;;13.10;55.40;;;;;;7541148;23;20064;-65
2023/02/19 01:15:46;;;;;;;8.15;3.10;;;13.10;55.40;;;;;;7567072;23;20037;-66
2023/02/19 01:18:47;;;;;;;3.92;2.85;;;13.10;55.40;;;;;;7566443;23;20101;-66
2023/02/19 01:21:48;;;;;;;7.03;3.88;;;13.00;55.40;;;;;;7566882;23;20503;-66
2023/02/19 01:24:50;;;;;;;8.63;3.30;;;13.00;55.40;;;;;;7566665;23;20038;-66
2023/02/19 01:27:51;;;;;;;10.35;4.13;;;12.90;55.40;;;;;;7566532;23;20058;-66
2023/02/19 01:30:52;;;;;;;10.13;4.13;;;12.90;55.50;;;;;;7540987;23;20010;-66
2023/02/19 01:33:56;;;;;;;10.10;4.30;;;12.90;55.60;;;;;;7566725;23;20020;-66
2023/02/19 01:36:58;;;;;;;11.90;5.22;;;12.90;55.70;;;;;;7566331;23;20109;-65
2023/02/19 01:39:59;;;;;;;17.30;5.53;;;12.80;55.80;;;;;;7556591;23;20049;-65
2023/02/19 01:43:00;;;;;;;11.82;5.68;;;12.80;56.00;;;;;;7566206;23;20010;-66
2023/02/19 01:46:01;;;;;;;14.57;5.63;;;12.80;56.20;;;;;;7564850;23;20006;-66
2023/02/19 01:49:08;;;;;;;11.30;5.47;;;12.70;56.40;;;;;;7565763;23;20006;-66
2023/02/19 01:52:35;;;;;;;14.50;5.57;;;12.60;56.60;;;;;;7564711;23;20462;-66
2023/02/19 01:55:36;;;;;;;11.13;5.35;;;12.60;56.80;;;;;;7455831;23;20011;-66
2023/02/19 01:58:38;;;;;;;9.07;5.57;;;12.50;56.90;;;;;;7432266;23;20012;-67
2023/02/19 02:01:40;;;;;;;10.02;5.20;;;12.60;57.10;;;;;;7456418;23;20350;-65
2023/02/19 02:04:41;;;;;;;15.35;5.60;;;12.50;57.20;;;;;;7432693;23;20359;-66
2023/02/19 02:11:02;;;;;;;10.63;6.20;;;12.50;57.20;;;;;;7432722;23;20391;-67
2023/02/19 02:14:04;;;;;;;14.05;5.60;;;12.50;57.20;;;;;;7432216;23;20304;-67
2023/02/19 02:17:19;;;;;;;9.40;4.45;;;12.40;57.20;;;;;;7432203;23;20015;-66
2023/02/19 02:20:38;;;;;;;13.43;5.55;;;12.40;57.40;;;;;;7431835;23;20022;-66
2023/02/19 02:23:58;;;;;;;11.07;5.28;;;12.30;57.50;;;;;;7432104;23;20110;-68
2023/02/19 02:27:20;;;;;;;12.48;5.32;;;12.30;57.80;;;;;;7388871;23;20103;-66
2023/02/19 02:30:31;;;;;;;9.93;5.20;;;12.20;58.00;;;;;;7432541;23;20011;-67
2023/02/19 02:33:41;;;;;;;12.45;6.45;;;12.10;58.10;;;;;;7553861;23;20348;-67
2023/02/19 02:36:46;;;;;;;11.55;5.40;;;12.00;58.30;;;;;;7564291;23;20097;-67
2023/02/19 02:39:50;;;;;;;11.70;5.60;;;11.90;58.50;;;;;;7563934;23;20026;-66
2023/02/19 02:42:51;;;;;;;11.52;5.60;;;11.90;58.70;;;;;;7540519;23;20101;-68
2023/02/19 02:45:52;;;;;;;11.15;4.80;;;11.90;58.90;;;;;;7565829;23;20085;-67
2023/02/19 02:49:07;;;;;;;12.65;6.03;;;11.80;59.00;;;;;;7564189;23;20014;-66
2023/02/19 02:55:01;;;;;;;14.65;5.38;;;11.80;59.10;;;;;;7564181;23;20057;-67
2023/02/19 02:55:38;;;;;;;13.07;5.68;;;11.80;59.10;;;;;;7566246;23;20034;-66
2023/02/19 02:58:40;;;;;;;12.98;5.97;;;11.80;59.10;;;;;;7565645;23;20006;-66
2023/02/19 03:08:51;;;;;;;11.40;6.18;;;11.80;59.20;;;;;;7563392;23;20014;-66
2023/02/19 03:22:08;;;;;;;12.18;6.65;;;11.70;59.30;;;;;;7564478;23;20014;-66
2023/02/19 03:32:16;;;;;;;14.23;6.05;;;11.50;59.50;;;;;;7563932;23;20080;-67
2023/02/19 03:35:24;;;;;;;16.98;6.80;;;11.50;59.60;;;;;;7564150;23;20424;-67
2023/02/19 03:38:50;;;;;;;14.55;5.75;;;11.40;59.60;;;;;;7564685;23;20021;-67
2023/02/19 03:42:00;;;;;;;11.55;5.72;;;11.40;59.80;;;;;;7539944;23;20011;-66
2023/02/19 03:45:08;;;;;;;13.52;5.15;;;11.30;59.90;;;;;;7539677;23;20021;-67
2023/02/19 03:48:49;;;;;;;13.30;6.10;;;11.20;60.00;;;;;;7539392;23;20034;-67
2023/02/19 03:51:56;;;;;;;11.45;5.07;;;11.20;60.20;;;;;;7466442;23;20008;-67
2023/02/19 03:55:21;;;;;;;11.30;5.78;;;11.10;60.30;;;;;;7490262;23;20015;-68
2023/02/19 03:58:46;;;;;;;15.15;6.38;;;11.10;60.40;;;;;;7466132;23;20362;-67
2023/02/19 04:01:55;;;;;;;10.55;5.68;;;11.00;60.50;;;;;;7490213;23;20411;-67
2023/02/19 04:05:26;;;;;;;13.98;5.88;;;11.00;60.70;;;;;;7466474;23;20066;-68
2023/02/19 04:08:30;;;;;;;13.05;5.43;;;10.90;60.80;;;;;;7488752;23;20015;-66
2023/02/19 04:11:37;;;;;;;12.93;5.30;;;10.90;61.00;;;;;;7466433;23;20011;-67
2023/02/19 04:15:01;;;;;;;14.63;6.03;;;10.90;61.20;;;;;;7466096;23;20094;-67
2023/02/19 04:18:07;;;;;;;12.55;6.38;;;10.80;61.30;;;;;;7489706;23;20015;-67
2023/02/19 04:21:09;;;;;;;13.52;5.28;;;10.80;61.40;;;;;;7492628;23;20027;-67
2023/02/19 04:24:15;;;;;;;10.43;5.10;;;10.80;61.40;;;;;;7492288;23;20290;-67
2023/02/19 04:27:17;;;;;;;10.93;5.20;;;10.80;61.60;;;;;;7526122;23;20689;-66
2023/02/19 04:30:18;;;;;;;8.88;5.10;;;10.70;61.60;;;;;;7567379;23;20272;-67
2023/02/19 04:33:19;;;;;;;13.63;5.78;;;10.70;61.70;;;;;;7541726;23;20105;-66
2023/02/19 04:36:21;;;;;;;12.93;5.32;;;10.60;61.70;;;;;;7541406;23;20017;-66
2023/02/19 04:39:22;;;;;;;9.10;5.00;;;10.60;62.00;;;;;;7566807;23;20420;-67
2023/02/19 04:42:23;;;;;;;12.25;5.47;;;10.50;62.10;;;;;;7567168;23;20074;-67
2023/02/19 04:45:24;;;;;;;10.80;5.35;;;10.50;62.30;;;;;;7567231;23;20417;-68
2023/02/19 04:48:25;;;;;;;10.80;4.65;;;10.50;62.60;;;;;;7566631;23;20006;-66
2023/02/19 04:51:26;;;;;;;16.23;5.53;;;10.50;62.70;;;;;;7567338;23;20024;-68
2023/02/19 04:54:27;;;;;;;10.40;5.88;;;10.50;62.80;;;;;;7541513;23;20442;-67
2023/02/19 04:57:28;;;;;;;13.68;5.90;;;10.50;62.90;;;;;;7567084;23;20011;-67
2023/02/19 05:00:29;;;;;;;13.18;5.45;;;10.50;62.80;;;;;;7566992;23;20022;-66
2023/02/19 05:03:33;;;;;;;12.02;5.63;;;10.50;62.60;;;;;;7541574;23;20051;-67
2023/02/19 05:06:34;;;;;;;10.00;4.70;;;10.60;62.60;;;;;;7566815;23;20011;-67
2023/02/19 05:09:35;;;;;;;13.88;5.85;;;10.60;62.50;;;;;;7566684;23;20078;-66
2023/02/19 05:12:36;;;;;;;10.48;5.00;;;10.60;62.50;;;;;;7566963;23;20272;-67
2023/02/19 05:15:37;;;;;;;13.85;5.68;;;10.60;62.40;;;;;;7566972;23;20010;-68
2023/02/19 05:18:40;;;;;;;10.80;5.20;;;10.60;62.60;;;;;;7541119;23;20524;-66
2023/02/19 05:21:41;;;;;;;12.80;6.13;;;10.50;62.50;;;;;;7541589;23;20313;-67
2023/02/19 05:24:42;;;;;;;11.10;5.18;;;10.50;62.50;;;;;;7566640;23;20017;-66
2023/02/19 05:27:43;;;;;;;11.65;5.38;;;10.50;62.60;;;;;;7566450;23;20600;-66
2023/02/19 05:30:49;;;;;;;12.13;5.40;;;10.50;62.70;;;;;;7566307;23;20098;-67
2023/02/19 05:33:51;;;;;;;10.52;5.40;;;10.50;62.70;;;;;;7566712;23;20010;-70
2023/02/19 05:36:52;;;;;;;10.10;5.07;;;10.50;62.70;;;;;;7566506;23;20030;-67
2023/02/19 05:39:53;;;;;;;11.50;5.45;;;9.90;62.10;;;;;;7566393;23;20405;-67
2023/02/19 05:42:54;;;;;;;20.15;4.88;;;10.50;62.40;;;;;;7566460;23;20021;-66
2023/02/19 05:45:57;;;;;;;10.38;5.40;;;10.50;62.40;;;;;;7566637;23;20030;-67
2023/02/19 05:48:59;;;;;;;8.40;4.53;;;10.60;62.40;;;;;;7540484;23;20097;-66
2023/02/19 05:52:00;;;;;;;14.57;4.82;;;10.60;62.30;;;;;;7566650;23;20077;-67
2023/02/19 05:55:01;;;;;;;10.00;5.00;;;10.60;62.30;;;;;;7566370;23;20014;-66
2023/02/19 05:58:02;;;;;;;10.88;4.85;;;10.60;62.30;;;;;;7516735;23;20080;-67
2023/02/19 06:01:04;;;;;;;10.38;5.10;;;10.60;62.40;;;;;;7566481;23;20325;-68
2023/02/19 06:04:05;;;;;;;10.05;5.38;;;10.50;62.40;;;;;;7566394;23;20034;-66
2023/02/19 06:07:06;;;;;;;8.10;5.03;;;10.50;62.60;;;;;;7566887;23;20105;-67
2023/02/19 06:10:09;;;;;;;12.05;5.15;;;10.40;62.50;;;;;;7569079;23;20062;-66
2023/02/19 06:13:10;;;;;;;10.07;5.10;;;10.40;62.70;;;;;;7543465;23;20014;-68
2023/02/19 06:16:12;;;;;;;11.55;4.85;;;10.30;62.80;;;;;;7541293;23;20014;-67
2023/02/19 06:19:13;;;;;;;11.68;5.38;;;10.40;62.90;;;;;;7565825;23;20058;-67
2023/02/19 06:22:15;;;;;;;12.25;5.20;;;10.40;62.80;;;;;;7566291;23;20006;-66
2023/02/19 06:25:16;;;;;;;9.20;5.50;;;10.50;62.90;;;;;;7540448;23;20010;-66
2023/02/19 06:28:17;;;;;;;9.57;4.45;;;10.60;62.80;;;;;;7540389;23;20081;-66
2023/02/19 06:31:20;;;;;;;14.15;5.15;;;10.70;62.60;;;;;;7566160;23;20006;-66
2023/02/19 06:34:21;;;;;;;11.98;5.00;;;10.70;62.20;;;;;;7566193;23;20085;-66
2023/02/19 06:37:22;;;;;;;9.13;5.15;;;10.70;62.00;;;;;;7540486;23;20445;-66
2023/02/19 06:40:23;;;;;;;12.15;5.35;;;10.70;61.90;;;;;;7537919;23;20169;-67
2023/02/19 06:43:24;;;;;;;11.45;5.60;;;10.60;61.80;;;;;;7564677;23;20010;-67
2023/02/19 06:46:25;;;;;;;10.57;5.07;;;10.60;61.90;;;;;;7566541;23;20039;-67
2023/02/19 06:49:26;;;;;;;9.98;5.32;;;10.50;61.80;;;;;;7564304;23;20002;-66
2023/02/19 06:52:27;;;;;;;9.73;5.10;;;10.40;61.80;;;;;;7564600;23;20436;-67
2023/02/19 06:55:28;;;;;;;10.65;5.80;;;10.40;62.00;;;;;;7566285;23;20007;-68
2023/02/19 06:58:30;;;;;;;11.52;5.43;;;10.30;62.10;;;;;;7564144;23;20070;-67
2023/02/19 07:01:33;;;;;;;9.63;5.25;;;10.30;62.10;;;;;;7566115;23;20006;-71
2023/02/19 07:04:34;;;;;;;11.43;4.65;;;10.20;62.20;;;;;;7566014;23;20006;-68
2023/02/19 07:07:35;;;;;;;10.25;5.40;;;10.20;62.40;;;;;;7565605;23;20038;-68
2023/02/19 07:10:37;;;;;;;10.82;5.25;;;10.20;62.60;;;;;;7566037;23;20002;-68
2023/02/19 07:13:38;;;;;;;9.95;5.53;;;10.20;62.70;;;;;;7565977;23;20010;-67
2023/02/19 07:16:39;;;;;;;9.55;5.35;;;10.20;62.70;;;;;;7565934;23;20017;-66
2023/02/19 07:19:40;;;;;;;10.50;4.53;;;10.20;62.70;;;;;;7565841;23;20012;-67
2023/02/19 07:22:41;;;;;;;14.75;5.50;;;10.20;62.80;;;;;;7566128;23;20014;-68
2023/02/19 07:25:42;;;;;;;9.40;4.53;;;10.20;62.80;;;;;;7564268;23;20006;-67
2023/02/19 07:28:45;;;;;;;19.45;5.57;;;10.20;62.80;;;;;;7565870;23;20006;-67
2023/02/19 07:31:47;;;;;;;9.95;4.75;;;10.20;62.80;;;;;;7565573;23;20030;-66
2023/02/19 07:34:47;;;;;;;13.20;5.57;;;10.20;62.90;;;;;;7565561;23;20440;-67
2023/02/19 07:37:49;;;;;;;10.10;5.13;;;10.20;63.80;;;;;;7565054;23;20364;-66
2023/02/19 07:40:55;;;;;;;10.65;5.68;;;10.20;63.00;;;;;;7539981;23;20014;-67
2023/02/19 07:43:56;;;;;;;12.13;5.68;;;10.20;62.80;;;;;;7565370;23;20444;-68
2023/02/19 07:46:57;;;;;;;10.60;5.18;;;10.30;62.80;;;;;;7565523;23;20029;-67
2023/02/19 07:49:58;;;;;;;9.98;5.60;;;10.40;62.80;;;;;;7539662;23;20033;-69
2023/02/19 07:52:59;;;;;;;13.50;5.70;;;10.40;62.70;;;;;;7539368;23;20022;-67
2023/02/19 07:56:02;;;;;;;9.38;6.05;;;10.50;62.60;;;;;;7565229;23;20010;-66
2023/02/19 07:59:04;;;;;;;9.43;4.95;;;10.60;62.50;;;;;;7564921;23;20508;-67
2023/02/19 08:05:39;;;;;;;14.25;6.47;;;10.80;62.20;;;;;;7565257;23;20592;-66
2023/02/19 08:08:40;;;;;;;9.75;5.78;;;10.80;61.80;;;;;;7564947;23;20039;-69
2023/02/19 08:15:01;;;;;;;8.98;5.95;;;10.90;61.60;;;;;;7539805;23;20081;-67
2023/02/19 08:18:02;;;;;;;11.98;6.28;;;11.00;61.70;;;;;;7538992;23;20015;-68
2023/02/19 08:21:03;;;;;;;12.77;6.00;;;11.00;61.40;;;;;;7539470;23;20034;-66
2023/02/19 08:24:05;;;;;;;11.73;6.65;;;11.20;61.30;;;;;;7538928;23;20402;-67
2023/02/19 08:27:06;;;;;;;12.85;6.68;;;11.20;61.00;;;;;;7539378;23;20006;-66
2023/02/19 08:30:07;;;;;;;10.45;5.45;;;11.40;60.70;;;;;;7564801;23;20081;-67
2023/02/19 08:33:10;;;;;;;26.52;7.07;;;11.50;60.60;;;;;;7565084;23;20015;-68
2023/02/19 08:36:11;;;;;;;16.85;6.38;;;11.70;60.20;;;;;;7564763;23;20013;-66
2023/02/19 08:39:12;;;;;;;14.73;7.30;;;11.80;59.90;;;;;;7545968;23;20023;-65
2023/02/19 08:42:13;;;;;;;14.85;6.90;;;11.90;59.70;;;;;;7565047;23;20010;-68
2023/02/19 08:45:15;;;;;;;13.85;7.05;;;12.00;59.50;;;;;;7565441;23;20523;-68
2023/02/19 08:48:16;;;;;;;16.58;6.43;;;12.10;59.40;;;;;;7565112;23;20022;-66
2023/02/19 08:51:17;;;;;;;16.42;6.38;;;12.20;59.30;;;;;;7566161;23;20015;-66
2023/02/19 08:54:18;;;;;;;9.95;5.90;;;12.40;59.00;;;;;;7569850;23;20018;-67
2023/02/19 08:57:19;;;;;;;11.45;5.15;;;12.60;58.70;;;;;;7564731;23;20344;-66
2023/02/19 09:00:20;;;;;;;12.48;6.38;;;12.80;58.30;;;;;;7565019;23;20006;-67
2023/02/19 09:03:21;;;;;;;13.68;6.60;;;12.80;57.90;;;;;;7565269;23;20022;-67
2023/02/19 09:06:22;;;;;;;12.00;5.88;;;12.80;57.60;;;;;;7564072;23;20306;-69
2023/02/19 09:09:23;;;;;;;17.30;6.78;;;12.90;57.30;;;;;;7565146;23;20006;-66
2023/02/19 09:12:24;;;;;;;12.32;6.00;;;13.00;57.40;;;;;;7567052;23;20293;-67
2023/02/19 09:15:27;;;;;;;9.38;5.45;;;13.10;57.00;;;;;;7567097;23;20002;-67
2023/02/19 09:18:28;;;;;;;12.20;5.60;;;13.20;56.70;;;;;;7565942;23;20400;-66
2023/02/19 09:21:29;;;;;;;10.80;5.13;;;13.40;56.60;;;;;;7566440;23;20011;-66
2023/02/19 09:24:31;;;;;;;14.25;6.85;;;13.50;56.40;;;;;;7564510;23;20011;-67
2023/02/19 09:27:32;;;;;;;16.27;5.88;;;13.70;56.00;;;;;;7565738;23;20006;-66
2023/02/19 09:30:33;;;;;;;17.08;6.13;;;13.80;55.90;;;;;;7566332;23;20069;-65
2023/02/19 09:33:34;;;;;;;12.02;6.63;;;14.00;55.60;;;;;;7564554;23;20006;-67
2023/02/19 09:36:35;;;;;;;14.45;6.75;;;14.10;55.10;;;;;;7566330;23;20045;-66
2023/02/19 09:39:36;;;;;;;10.60;5.50;;;14.20;54.70;;;;;;7564355;23;20014;-66
2023/02/19 09:42:41;;;;;;;10.57;5.35;;;14.20;54.50;;;;;;7566324;23;20113;-66
2023/02/19 09:45:42;;;;;;;12.20;6.07;;;14.20;54.20;;;;;;7566255;23;20006;-66
2023/02/19 09:48:43;;;;;;;14.10;6.28;;;14.10;54.10;;;;;;7565725;23;20002;-66
2023/02/19 09:51:49;;;;;;;9.98;5.18;;;14.20;54.00;;;;;;7564435;23;20013;-66
2023/02/19 09:54:56;;;;;;;11.30;5.88;;;14.30;54.00;;;;;;7566210;23;20010;-66
2023/02/19 09:58:01;;;;;;;16.10;6.10;;;14.30;53.70;;;;;;7565473;23;20361;-66
2023/02/19 10:01:04;;;;;;;12.98;5.10;;;14.30;53.50;;;;;;7564194;23;20065;-66
2023/02/19 10:04:05;;;;;;;14.80;5.57;;;14.40;53.50;;;;;;7565774;23;20010;-66
2023/02/19 10:07:18;;;;;;;12.88;6.10;;;14.50;53.30;;;;;;7566123;23;20009;-67
2023/02/19 10:10:27;;;;;;;13.25;5.78;;;14.60;53.20;;;;;;7566154;23;20015;-66
2023/02/19 10:13:41;;;;;;;13.70;6.43;;;14.80;53.10;;;;;;7565777;23;20006;-67
2023/02/19 10:16:45;;;;;;;14.63;5.90;;;14.90;52.80;;;;;;7563876;23;20332;-68
2023/02/19 10:19:46;;;;;;;25.00;6.90;;;15.00;52.90;;;;;;7565841;23;20017;-67
2023/02/19 10:22:47;;;;;;;13.88;5.80;;;15.10;51.90;;;;;;7565713;23;20294;-67
2023/02/19 10:25:58;;;;;;;10.88;5.30;;;15.20;51.70;;;;;;7565962;23;20021;-66
2023/02/19 10:29:00;;;;;;;13.35;5.75;;;15.20;51.80;;;;;;7565441;23;20006;-65
2023/02/19 10:32:22;;;;;;;12.93;5.18;;;15.30;51.60;;;;;;7565831;23;20082;-65
2023/02/19 10:35:24;;;;;;;15.98;5.80;;;15.50;51.30;;;;;;7564414;23;20002;-67
2023/02/19 10:38:46;;;;;;;15.70;5.07;;;15.70;50.50;;;;;;7565573;23;20086;-66
2023/02/19 10:41:53;;;;;;;17.38;7.05;;;15.80;50.20;;;;;;7566122;23;20013;-68
2023/02/19 10:45:00;;;;;;;;;;;16.00;50.00;;;;;;7540304;23;20024;-67
2023/02/19 10:48:03;;;;;;;8.05;4.20;;;16.20;49.50;;;;;;7565145;23;19905;-66
2023/02/19 10:51:08;;;;;;;7.47;3.58;;;16.40;48.90;;;;;;7565330;23;20007;-66
2023/02/19 10:54:23;;;;;;;6.35;4.18;;;16.50;48.20;;;;;;7565260;23;20018;-68
2023/02/19 10:57:32;;;;;;;18.70;6.50;;;16.70;47.90;;;;;;7564647;23;20325;-67
2023/02/19 11:00:33;;;;;;;14.02;4.65;;;16.80;47.50;;;;;;7539727;23;20019;-67
2023/02/19 11:03:34;;;;;;;11.52;5.18;;;17.00;47.30;;;;;;7540084;23;20065;-66
2023/02/19 11:06:35;;;;;;;8.93;3.72;;;17.20;46.80;;;;;;7539735;23;20594;-67
2023/02/19 11:09:45;;;;;;;8.27;4.47;;;17.50;46.30;;;;;;7564884;23;20013;-67
2023/02/19 11:12:50;;;;;;;6.25;3.25;;;17.80;46.00;;;;;;7541366;23;20017;-66
2023/02/19 11:15:54;;;;;;;10.80;4.35;;;18.10;45.40;;;;;;7569014;23;20006;-66
2023/02/19 11:18:55;;;;;;;7.57;3.83;;;18.20;44.80;;;;;;7565593;23;20014;-67
2023/02/19 11:21:59;;;;;;;12.07;4.55;;;18.40;44.60;;;;;;7565927;23;20432;-66
2023/02/19 11:25:13;;;;;;;16.42;4.07;;;18.60;44.40;;;;;;7565850;23;20085;-66
2023/02/19 11:28:35;;;;;;;7.18;3.17;;;18.90;43.70;;;;;;7564261;23;20034;-66
2023/02/19 11:31:38;;;;;;;9.95;3.88;;;19.20;43.20;;;;;;7539536;23;20296;-67
2023/02/19 11:34:40;;;;;;;9.80;3.42;;;19.60;42.30;;;;;;7564875;23;20133;-67
2023/02/19 11:38:01;;;;;;;7.32;3.65;;;20.00;41.70;;;;;;7538635;23;20007;-66
2023/02/19 11:41:09;;;;;;;5.43;3.25;;;20.20;41.20;;;;;;7564642;23;20537;-66
2023/02/19 11:44:32;;;;;;;6.45;3.53;;;20.40;40.80;;;;;;7564486;23;20014;-66
2023/02/19 11:48:05;;;;;;;6.82;3.33;;;20.60;40.00;;;;;;7538598;23;20089;-68
2023/02/19 11:51:43;;;;;;;4.45;2.53;;;20.70;39.70;;;;;;7564739;23;20010;-66
2023/02/19 11:55:15;;;;;;;3.70;1.95;;;20.80;39.10;;;;;;7565801;23;20086;-66
2023/02/19 11:58:37;;;;;;;7.00;2.92;;;21.10;38.90;;;;;;7569722;23;20010;-67
2023/02/19 12:02:03;;;;;;;7.20;3.00;;;21.40;38.40;;;;;;7567216;23;20006;-68
2023/02/19 12:05:42;;;;;;;6.85;2.92;;;21.80;37.60;;;;;;7564904;23;20006;-67
2023/02/19 12:09:05;;;;;;;5.05;2.90;;;21.70;37.80;;;;;;7490193;23;20011;-66
2023/02/19 12:12:43;;;;;;;3.92;2.53;;;21.90;37.30;;;;;;7490545;23;20007;-68
2023/02/19 12:16:06;;;;;;;4.47;2.55;;;21.80;37.00;;;;;;7490576;23;20011;-67
2023/02/19 12:19:16;;;;;;;2.50;1.45;;;21.50;37.50;;;;;;7466221;23;20368;-67
2023/02/19 12:22:27;;;;;;;1.35;1.10;;;21.30;38.30;;;;;;7489993;23;20016;-67
2023/02/19 12:26:07;;;;;;;4.68;1.40;;;21.60;38.40;;;;;;7466193;23;20425;-66
2023/02/19 12:29:29;;;;;;;1.85;1.00;;;21.90;37.80;;;;;;7454423;23;20040;-67
2023/02/19 12:33:23;;;;;;;2.65;1.42;;;22.10;37.30;;;;;;7454886;23;20462;-67
2023/02/19 12:36:56;;;;;;;3.15;1.15;;;22.50;37.10;;;;;;7431005;23;20027;-67
2023/02/19 12:40:12;;;;;;;1.50;1.20;;;23.10;36.40;;;;;;7351008;24;20114;-68
2023/02/19 12:43:23;;;;;;;1.80;1.33;;;23.60;35.30;;;;;;7330059;24;20204;-68
2023/02/19 12:46:39;;;;;;;4.22;1.27;;;24.10;34.70;;;;;;7353024;24;20095;-67
2023/02/19 12:49:49;;;;;;;5.13;1.50;;;24.60;34.00;;;;;;7352608;24;20107;-66
2023/02/19 12:53:06;;;;;;;1.92;1.42;;;24.80;33.10;;;;;;7353407;24;20013;-68
2023/02/19 12:56:33;;;;;;;1.77;1.25;;;24.90;33.00;;;;;;7353292;24;20389;-66
2023/02/19 12:59:41;;;;;;;1.80;1.17;;;24.10;33.40;;;;;;7385832;24;20354;-68
2023/02/19 13:02:58;;;;;;;1.60;1.48;;;23.20;34.60;;;;;;7422102;24;20008;-66
2023/02/19 13:06:39;;;;;;;2.88;1.27;;;22.30;35.80;;;;;;7422234;24;20083;-67
2023/02/19 13:09:44;;;;;;;3.97;1.70;;;21.60;37.20;;;;;;7352241;24;20017;-66
2023/02/19 13:12:47;;;;;;;4.32;1.80;;;21.10;38.10;;;;;;7352693;24;20013;-69
2023/02/19 13:16:25;;;;;;;5.65;1.60;;;20.70;38.80;;;;;;7357130;23;20115;-66
2023/02/19 13:19:26;;;;;;;3.35;1.35;;;20.30;39.60;;;;;;7432161;23;20041;-68
2023/02/19 13:26:36;;;;;;;2.70;1.65;;;19.70;40.70;;;;;;7456542;23;20007;-66
2023/02/19 13:29:55;;;;;;;3.05;1.50;;;19.50;41.30;;;;;;7456254;23;20050;-66
2023/02/19 13:33:14;;;;;;;4.72;1.85;;;19.30;41.70;;;;;;7456326;23;20016;-66
2023/02/19 13:36:36;;;;;;;3.40;1.63;;;19.10;42.10;;;;;;7432681;23;20019;-66
2023/02/19 13:39:48;;;;;;;2.05;1.58;;;19.00;42.60;;;;;;7455722;23;20015;-66
2023/02/19 13:42:53;;;;;;;8.57;1.70;;;18.80;42.90;;;;;;7456156;23;20050;-68
2023/02/19 13:46:02;;;;;;;3.83;1.67;;;18.80;43.20;;;;;;7466272;23;20031;-65
2023/02/19 13:49:22;;;;;;;2.63;1.67;;;18.70;43.50;;;;;;7529961;23;20011;-67
2023/02/19 13:52:29;;;;;;;4.30;2.03;;;18.70;43.70;;;;;;7530347;23;20019;-66
2023/02/19 13:55:51;;;;;;;8.13;1.88;;;18.60;44.00;;;;;;7530478;23;20290;-68
2023/02/19 13:58:57;;;;;;;6.38;1.45;;;18.50;44.10;;;;;;7530356;23;20401;-67
2023/02/19 14:01:59;;;;;;;2.65;1.70;;;18.50;44.30;;;;;;7530430;23;20018;-67
2023/02/19 14:05:06;;;;;;;2.33;1.42;;;18.50;44.40;;;;;;7530655;23;20014;-66
2023/02/19 14:08:08;;;;;;;4.32;1.65;;;18.50;44.60;;;;;;7530259;23;20377;-67
2023/02/19 14:11:13;;;;;;;4.03;1.23;;;18.40;44.70;;;;;;7531252;23;20022;-66
2023/02/19 14:14:38;;;;;;;1.35;1.20;;;18.40;44.90;;;;;;7529112;23;20093;-66
2023/02/19 14:17:41;;;;;;;4.68;1.50;;;18.20;45.00;;;;;;7530751;23;20011;-66
2023/02/19 14:20:44;;;;;;;2.72;1.50;;;18.30;45.20;;;;;;7529184;23;20022;-68
2023/02/19 14:23:56;;;;;;;2.28;1.52;;;18.30;45.40;;;;;;7530141;23;20090;-66
2023/02/19 14:26:58;;;;;;;3.88;1.60;;;18.20;45.70;;;;;;7530121;23;20460;-68
2023/02/19 14:30:01;;;;;;;6.75;1.52;;;18.10;45.80;;;;;;7529506;23;20014;-68
2023/02/19 14:33:09;;;;;;;2.35;1.23;;;18.10;46.00;;;;;;7530062;23;20003;-67
2023/02/19 14:36:37;;;;;;;4.13;1.45;;;18.10;46.10;;;;;;7530072;23;20105;-66
2023/02/19 14:39:39;;;;;;;1.77;1.42;;;18.00;46.30;;;;;;7396825;24;20012;-66
2023/02/19 14:42:41;;;;;;;1.85;1.50;;;18.00;46.40;;;;;;7420544;24;20069;-67
2023/02/19 14:45:56;;;;;;;3.47;1.45;;;18.00;46.70;;;;;;7420368;24;20012;-66
2023/02/19 14:49:14;;;;;;;3.58;1.23;;;17.90;46.90;;;;;;7420348;24;20050;-66
2023/02/19 14:52:45;;;;;;;2.28;1.50;;;17.80;47.10;;;;;;7397143;24;20009;-67
2023/02/19 14:55:48;;;;;;;1.55;1.13;;;17.70;47.30;;;;;;7420972;24;20016;-66
2023/02/19 14:59:18;;;;;;;3.22;1.77;;;17.70;47.50;;;;;;7397028;24;20016;-68
2023/02/19 15:02:20;;;;;;;2.45;1.58;;;17.60;47.70;;;;;;7416534;24;20095;-66
2023/02/19 15:05:26;;;;;;;5.07;1.50;;;17.60;47.90;;;;;;7420542;24;20024;-67
2023/02/19 15:08:38;;;;;;;4.35;1.48;;;17.50;48.00;;;;;;7420639;24;20027;-67
2023/02/19 15:11:42;;;;;;;3.97;1.27;;;17.50;48.10;;;;;;7421367;24;20020;-67
2023/02/19 15:14:45;;;;;;;1.60;1.23;;;17.40;48.20;;;;;;7420537;24;20065;-66
2023/02/19 15:17:46;;;;;;;2.17;1.30;;;17.40;48.40;;;;;;7526623;23;20117;-67
2023/02/19 15:20:48;;;;;;;3.83;1.73;;;17.30;48.50;;;;;;7527840;23;20014;-66
2023/02/19 15:23:52;;;;;;;4.90;1.63;;;17.30;48.70;;;;;;7529298;23;20341;-66
2023/02/19 15:26:54;;;;;;;1.63;1.40;;;17.30;48.80;;;;;;7527261;23;20011;-67
2023/02/19 15:29:57;;;;;;;2.63;1.13;;;17.20;48.90;;;;;;7528787;23;20013;-66
2023/02/19 15:32:59;;;;;;;4.15;1.40;;;17.10;49.10;;;;;;7529400;23;20011;-68
2023/02/19 15:36:05;;;;;;;7.97;1.63;;;17.10;49.30;;;;;;7528586;23;20081;-67
2023/02/19 15:39:06;;;;;;;1.80;1.20;;;17.00;49.40;;;;;;7545911;23;20014;-67
2023/02/19 15:42:16;;;;;;;1.48;1.10;;;17.00;49.50;;;;;;7565129;23;20038;-67
2023/02/19 15:45:27;;;;;;;6.50;1.77;;;16.90;49.70;;;;;;7565217;23;20046;-66
2023/02/19 15:48:56;;;;;;;2.35;1.40;;;16.90;49.80;;;;;;7564191;23;20013;-66
2023/02/19 15:52:03;;;;;;;2.55;1.45;;;16.80;49.90;;;;;;7564403;23;20010;-66
2023/02/19 15:55:12;;;;;;;1.30;1.00;;;16.80;50.00;;;;;;7564879;23;20412;-67
2023/02/19 15:58:31;;;;;;;1.60;1.30;;;16.80;50.30;;;;;;7564024;23;20093;-66
2023/02/19 16:01:36;;;;;;;2.13;1.25;;;16.70;50.50;;;;;;7564728;23;20085;-67
2023/02/19 16:04:38;;;;;;;1.67;1.15;;;16.60;50.70;;;;;;7564145;23;20018;-66
2023/02/19 16:07:39;;;;;;;5.80;1.40;;;16.60;50.90;;;;;;7564314;23;20014;-66
2023/02/19 16:10:54;;;;;;;7.85;1.67;;;16.60;51.30;;;;;;7564237;23;20007;-66
2023/02/19 16:14:22;;;;;;;3.67;1.60;;;16.50;51.50;;;;;;7564658;23;20015;-66
2023/02/19 16:17:26;;;;;;;5.93;1.08;;;16.40;51.80;;;;;;7541014;23;20329;-67
2023/02/19 16:20:33;;;;;;;1.80;0.98;;;16.30;51.90;;;;;;7541227;23;20007;-67
2023/02/19 16:23:35;;;;;;;1.77;1.02;;;16.20;52.20;;;;;;7566966;23;20038;-67
2023/02/19 16:26:42;;;;;;;1.58;1.13;;;16.20;52.40;;;;;;7566546;23;20006;-68
2023/02/19 16:29:49;;;;;;;1.20;1.10;;;16.10;52.70;;;;;;7566851;23;20003;-67
2023/02/19 16:33:19;;;;;;;1.02;0.98;;;16.00;52.90;;;;;;7566884;23;20259;-67
2023/02/19 16:36:32;;;;;;;5.10;1.30;;;16.00;53.00;;;;;;7566785;23;20262;-66
2023/02/19 16:39:33;;;;;;;2.63;1.48;;;15.90;53.20;;;;;;7551942;23;20018;-66
2023/02/19 16:43:17;;;;;;;1.75;1.20;;;15.90;53.40;;;;;;7566973;23;20496;-67
2023/02/19 16:46:18;;;;;;;6.35;1.17;;;15.80;53.60;;;;;;7555295;23;20022;-67